Time;durP1;ratioP1;P1;durP2;ratioP2;P2;SDS_P1;SDS_P2;PMS_P1;PMS_P2;Temp;Humidity;BMP_temperature;BMP_pressure;BME280_temperature;BME280_humidity;BME280_pressure;Samples;Min_cycle;Max_cycle;Signal;HPM_P1;HPM_P2
2021/12/17 00:00:26;;;;;;;55.75;32.88;;;5.70;99.90;;;;;;5073067;28;20077;-75
2021/12/17 00:05:32;;;;;;;51.80;29.83;;;5.80;99.90;;;;;;5071369;28;20427;-77
2021/12/17 00:07:58;;;;;;;63.50;35.28;;;5.90;99.90;;;;;;5072381;28;20021;-77
2021/12/17 00:10:24;;;;;;;51.13;31.17;;;5.90;99.90;;;;;;5052755;28;20033;-73
2021/12/17 00:12:51;;;;;;;55.83;31.70;;;6.10;99.90;;;;;;5052831;28;20108;-75
2021/12/17 00:15:17;;;;;;;50.90;29.92;;;5.80;99.90;;;;;;5052745;28;20080;-74
2021/12/17 00:17:54;;;;;;;60.85;33.35;;;5.40;99.90;;;;;;5051407;28;20052;-74
2021/12/17 00:20:54;;;;;;;57.45;32.75;;;5.40;99.90;;;;;;5052295;28;20037;-76
2021/12/17 00:51:27;;;;;;;51.28;28.42;;;5.40;99.90;;;;;;5059246;28;20389;-77
2021/12/17 00:53:43;;;;;;;61.92;29.75;;;5.50;99.90;;;;;;5057740;28;20095;-77
2021/12/17 00:56:08;;;;;;;59.22;29.13;;;5.70;99.90;;;;;;5059037;28;20025;-76
2021/12/17 00:58:34;;;;;;;55.55;28.48;;;5.70;99.90;;;;;;5059190;28;20057;-74
2021/12/17 01:01:00;;;;;;;54.28;28.40;;;5.60;99.90;;;;;;5057746;28;20508;-76
2021/12/17 01:03:26;;;;;;;67.38;30.35;;;5.60;99.90;;;;;;5057402;28;20017;-74
2021/12/17 01:05:53;;;;;;;55.92;28.90;;;5.60;99.90;;;;;;5057700;28;20489;-77
2021/12/17 01:08:18;;;;;;;56.25;29.90;;;5.70;99.90;;;;;;5057395;28;20014;-74
2021/12/17 01:10:49;;;;;;;62.80;30.95;;;5.80;99.90;;;;;;5057780;28;20102;-74
2021/12/17 01:13:41;;;;;;;65.57;30.63;;;5.90;99.90;;;;;;5057797;28;20123;-74
2021/12/17 01:16:25;;;;;;;70.43;33.20;;;5.80;99.90;;;;;;5059013;28;20547;-73
2021/12/17 01:19:29;;;;;;;63.85;32.97;;;5.50;99.90;;;;;;5058267;28;20036;-75
2021/12/17 01:25:05;;;;;;;88.95;38.63;;;5.10;99.90;;;;;;5058560;28;20037;-77
2021/12/17 01:42:45;;;;;;;188.25;51.70;;;5.10;99.90;;;;;;5053788;28;20116;-77
2021/12/17 01:45:11;;;;;;;235.25;47.97;;;4.90;99.90;;;;;;5067043;28;20124;-76
2021/12/17 01:47:37;;;;;;;218.25;42.17;;;4.90;99.90;;;;;;5055321;28;20486;-77
2021/12/17 01:56:00;;;;;;;285.02;38.67;;;5.20;99.90;;;;;;5056112;28;20120;-77
2021/12/17 02:01:11;;;;;;;352.35;38.50;;;5.10;99.90;;;;;;5053742;28;20021;-77
2021/12/17 02:03:37;;;;;;;605.60;47.80;;;5.10;99.90;;;;;;5037434;28;20112;-77
2021/12/17 02:06:04;;;;;;;218.90;36.85;;;5.40;99.90;;;;;;5053916;28;20332;-77
2021/12/17 02:08:31;;;;;;;242.10;41.20;;;5.40;99.90;;;;;;5074068;28;20485;-77
2021/12/17 02:19:42;;;;;;;197.93;31.63;;;5.00;99.90;;;;;;5073480;28;20036;-77
2021/12/17 02:30:55;;;;;;;596.65;43.13;;;5.60;99.90;;;;;;5073280;28;20056;-76
2021/12/17 02:33:22;;;;;;;278.98;34.75;;;5.80;99.90;;;;;;5073374;28;20028;-76
2021/12/17 02:35:48;;;;;;;255.00;34.28;;;5.90;99.90;;;;;;5062124;28;20144;-76
2021/12/17 02:38:16;;;;;;;361.50;37.20;;;5.80;99.90;;;;;;5069949;28;20497;-76
2021/12/17 02:47:15;;;;;;;203.68;27.98;;;5.10;99.90;;;;;;5053077;28;20484;-76
2021/12/17 02:49:44;;;;;;;162.43;27.77;;;5.10;99.90;;;;;;5069172;28;20032;-75
2021/12/17 02:52:11;;;;;;;211.00;30.45;;;5.10;99.90;;;;;;5035836;28;20044;-76
2021/12/17 02:54:37;;;;;;;185.57;31.27;;;5.10;99.90;;;;;;5054218;28;20104;-75
2021/12/17 02:57:05;;;;;;;149.05;29.48;;;5.00;99.90;;;;;;5052859;28;20124;-76
2021/12/17 02:59:35;;;;;;;149.88;27.05;;;4.90;99.90;;;;;;5052637;28;20028;-76
2021/12/17 03:02:10;;;;;;;186.95;31.05;;;4.90;99.90;;;;;;5052635;28;20067;-76
2021/12/17 03:04:41;;;;;;;140.63;26.42;;;5.00;99.90;;;;;;5052674;28;20063;-76
2021/12/17 03:07:11;;;;;;;206.82;27.92;;;4.90;99.90;;;;;;5052640;28;20158;-76
2021/12/17 03:09:55;;;;;;;409.50;37.60;;;5.00;99.90;;;;;;5050236;28;20085;-76
2021/12/17 03:12:29;;;;;;;220.85;25.90;;;5.10;99.90;;;;;;5072491;28;20081;-76
2021/12/17 03:15:04;;;;;;;163.75;24.25;;;5.10;99.90;;;;;;5073366;28;20037;-75
2021/12/17 03:18:02;;;;;;;172.48;24.40;;;5.00;99.90;;;;;;5073778;28;20033;-75
2021/12/17 03:25:47;;;;;;;206.75;24.95;;;4.90;99.90;;;;;;5059501;28;20033;-76
2021/12/17 03:28:13;;;;;;;130.65;24.88;;;4.80;99.90;;;;;;5071835;28;20020;-76
2021/12/17 03:30:39;;;;;;;176.07;23.73;;;4.80;99.90;;;;;;5072272;28;20028;-76
2021/12/17 03:33:05;;;;;;;162.13;26.25;;;4.80;99.90;;;;;;5072153;28;20031;-76
2021/12/17 03:35:31;;;;;;;250.90;28.30;;;4.90;99.90;;;;;;5072082;28;20028;-76
2021/12/17 03:37:57;;;;;;;369.95;32.42;;;4.90;99.90;;;;;;5073269;28;20457;-76
2021/12/17 03:40:23;;;;;;;106.90;21.75;;;5.20;99.90;;;;;;5073311;28;20016;-75
2021/12/17 03:42:51;;;;;;;89.18;19.92;;;5.20;99.90;;;;;;5071685;28;20042;-76
2021/12/17 03:45:20;;;;;;;86.75;19.52;;;5.00;99.90;;;;;;5072062;28;20131;-76
2021/12/17 03:47:50;;;;;;;113.15;20.10;;;4.90;99.90;;;;;;5071740;28;20020;-75
2021/12/17 03:50:18;;;;;;;111.18;19.80;;;4.80;99.90;;;;;;5072095;28;20021;-76
2021/12/17 03:52:44;;;;;;;102.03;19.38;;;4.80;99.90;;;;;;5071889;28;20483;-76
2021/12/17 03:55:11;;;;;;;240.70;25.35;;;4.80;99.90;;;;;;5071714;28;20483;-76
2021/12/17 03:57:42;;;;;;;315.03;29.63;;;4.80;99.90;;;;;;5071733;28;20441;-76
2021/12/17 04:00:10;;;;;;;158.40;19.95;;;5.20;99.90;;;;;;5071713;28;20071;-76
2021/12/17 04:02:43;;;;;;;146.35;22.10;;;5.40;99.90;;;;;;5072719;28;20447;-76
2021/12/17 04:05:12;;;;;;;403.05;31.95;;;5.10;99.90;;;;;;5071657;28;20443;-76
2021/12/17 04:07:38;;;;;;;132.77;22.02;;;5.10;99.90;;;;;;5071977;28;20013;-76
2021/12/17 04:10:13;;;;;;;126.18;20.98;;;5.40;99.90;;;;;;5053531;28;20036;-76
2021/12/17 04:15:31;;;;;;;270.08;25.88;;;5.50;99.90;;;;;;5054979;28;20064;-76
2021/12/17 04:17:58;;;;;;;184.13;23.00;;;5.20;99.90;;;;;;5054948;28;20021;-76
2021/12/17 04:20:24;;;;;;;198.77;23.48;;;5.30;99.90;;;;;;5052682;28;20029;-76
2021/12/17 04:22:50;;;;;;;159.82;23.85;;;5.40;99.90;;;;;;5035121;28;20025;-77
2021/12/17 04:25:17;;;;;;;457.92;34.35;;;5.40;99.90;;;;;;5054426;28;20024;-76
2021/12/17 04:27:43;;;;;;;466.05;31.83;;;5.40;99.90;;;;;;5054899;28;20040;-76
2021/12/17 04:30:10;;;;;;;428.25;32.40;;;5.70;99.90;;;;;;5054845;28;20028;-75
2021/12/17 04:32:36;;;;;;;304.02;26.60;;;6.00;99.90;;;;;;5071647;28;20030;-75
2021/12/17 04:35:03;;;;;;;239.77;24.48;;;6.10;99.90;;;;;;5071471;28;20471;-76
2021/12/17 04:37:37;;;;;;;276.85;25.08;;;6.20;99.90;;;;;;5071579;28;20024;-76
2021/12/17 04:40:03;;;;;;;284.05;23.52;;;6.30;99.90;;;;;;5072515;28;20035;-76
2021/12/17 04:42:51;;;;;;;197.50;20.23;;;6.30;99.90;;;;;;5055888;28;20112;-76
2021/12/17 04:45:18;;;;;;;159.85;21.02;;;6.30;99.90;;;;;;5067797;28;20040;-75
2021/12/17 04:59:23;;;;;;;475.50;33.92;;;6.20;99.90;;;;;;5072950;28;20028;-76
2021/12/17 05:01:51;;;;;;;299.60;24.50;;;6.40;99.90;;;;;;5071704;28;20527;-75
2021/12/17 05:04:19;;;;;;;317.63;25.75;;;6.40;99.90;;;;;;5071453;28;20024;-76
2021/12/17 05:06:45;;;;;;;445.65;32.70;;;6.40;99.90;;;;;;5071250;28;20042;-76
2021/12/17 05:09:24;;;;;;;203.75;23.25;;;6.40;99.90;;;;;;5060287;28;20028;-76
2021/12/17 05:19:58;;;;;;;162.50;25.95;;;6.30;99.90;;;;;;5054789;28;20037;-76
2021/12/17 05:22:26;;;;;;;137.25;26.25;;;6.50;99.90;;;;;;5054865;28;20025;-75
2021/12/17 05:24:52;;;;;;;93.32;25.65;;;6.60;99.90;;;;;;5054171;28;20048;-76
2021/12/17 05:27:19;;;;;;;82.75;29.90;;;6.60;99.90;;;;;;5054684;28;20075;-76
2021/12/17 05:29:51;;;;;;;144.73;32.70;;;6.70;99.90;;;;;;5054463;28;20124;-75
2021/12/17 05:32:17;;;;;;;132.68;32.38;;;6.90;99.90;;;;;;5054494;28;20445;-76
2021/12/17 05:34:44;;;;;;;189.70;35.00;;;6.90;99.90;;;;;;5054432;28;20029;-76
2021/12/17 05:37:12;;;;;;;516.00;64.43;;;6.90;99.90;;;;;;5054330;28;20036;-76
2021/12/17 05:39:37;;;;;;;232.68;34.00;;;7.00;99.90;;;;;;5054334;28;20021;-75
2021/12/17 05:42:05;;;;;;;123.95;27.63;;;6.70;99.90;;;;;;5054156;28;20469;-76
2021/12/17 05:44:31;;;;;;;160.85;29.52;;;6.80;99.90;;;;;;5054534;28;20021;-76
2021/12/17 05:46:57;;;;;;;156.82;29.13;;;7.00;99.90;;;;;;5054011;28;20040;-75
2021/12/17 05:49:27;;;;;;;101.97;26.00;;;6.90;99.90;;;;;;5054300;28;20111;-77
2021/12/17 05:51:55;;;;;;;110.63;24.83;;;6.80;99.90;;;;;;5054082;28;20037;-76
2021/12/17 05:54:23;;;;;;;143.18;24.85;;;6.70;99.90;;;;;;5053827;28;20540;-76
2021/12/17 05:56:50;;;;;;;316.98;28.98;;;6.80;99.90;;;;;;5055357;28;20091;-77
2021/12/17 05:59:19;;;;;;;136.70;25.63;;;6.90;99.90;;;;;;5054319;28;20029;-76
2021/12/17 06:01:45;;;;;;;180.27;24.23;;;7.00;99.90;;;;;;5053844;28;20025;-76
2021/12/17 06:04:11;;;;;;;400.10;29.58;;;6.90;99.90;;;;;;5057441;28;20024;-76
2021/12/17 06:06:49;;;;;;;194.18;22.95;;;7.00;99.90;;;;;;5074030;28;20041;-76
2021/12/17 06:09:15;;;;;;;233.23;25.85;;;7.00;99.90;;;;;;5062049;28;20020;-76
2021/12/17 06:11:43;;;;;;;116.50;24.10;;;7.10;99.90;;;;;;5053692;28;20124;-76
2021/12/17 06:14:11;;;;;;;149.98;22.85;;;7.30;99.90;;;;;;5053769;28;20021;-76
2021/12/17 06:16:37;;;;;;;192.20;26.25;;;7.20;99.90;;;;;;5053667;28;20025;-77
2021/12/17 06:19:09;;;;;;;394.77;31.73;;;7.30;99.90;;;;;;5053381;28;20033;-77
2021/12/17 06:21:35;;;;;;;181.45;23.65;;;7.20;99.90;;;;;;5053622;28;20025;-77
2021/12/17 06:24:02;;;;;;;109.22;22.52;;;7.30;99.90;;;;;;5053522;28;20075;-76
2021/12/17 06:26:28;;;;;;;145.25;24.25;;;7.20;99.90;;;;;;5065985;28;20416;-76
2021/12/17 06:28:55;;;;;;;399.13;32.67;;;7.20;99.90;;;;;;5073390;28;20017;-76
2021/12/17 06:31:23;;;;;;;146.20;24.35;;;7.40;99.90;;;;;;5073270;28;20032;-76
2021/12/17 06:33:50;;;;;;;442.35;33.17;;;7.40;99.90;;;;;;5073442;28;20077;-75
2021/12/17 06:36:16;;;;;;;424.00;35.60;;;7.70;99.90;;;;;;5056672;28;20028;-76
2021/12/17 06:38:42;;;;;;;248.95;28.73;;;7.80;99.90;;;;;;5072781;28;20032;-75
2021/12/17 06:41:08;;;;;;;323.98;31.20;;;7.70;99.90;;;;;;5073086;28;20069;-76
2021/12/17 06:43:41;;;;;;;202.20;26.35;;;7.40;99.90;;;;;;5073134;28;20035;-77
2021/12/17 06:46:22;;;;;;;422.80;38.95;;;7.40;99.90;;;;;;5073001;28;20515;-76
2021/12/17 06:48:55;;;;;;;230.32;30.92;;;7.60;99.90;;;;;;5074056;28;20029;-76
2021/12/17 07:00:15;;;;;;;116.85;27.10;;;7.40;99.90;;;;;;5061955;28;20117;-74
2021/12/17 07:35:51;;;;;;;125.32;34.25;;;7.90;99.90;;;;;;5072426;28;20044;-75
2021/12/17 07:41:11;;;;;;;131.35;33.05;;;7.60;99.90;;;;;;5072510;28;20492;-75
2021/12/17 07:43:40;;;;;;;167.18;39.40;;;7.70;99.90;;;;;;5070272;28;20416;-74
2021/12/17 07:46:13;;;;;;;185.45;72.13;;;7.70;99.90;;;;;;5071647;28;20040;-75
2021/12/17 07:48:40;;;;;;;243.70;60.20;;;7.70;99.90;;;;;;5071670;28;20024;-74
2021/12/17 07:51:13;;;;;;;200.95;62.05;;;7.70;99.90;;;;;;5065097;28;20025;-75
2021/12/17 07:54:05;;;;;;;147.93;41.70;;;7.70;99.90;;;;;;5052417;28;20029;-75
2021/12/17 07:56:37;;;;;;;126.68;45.63;;;7.80;99.90;;;;;;5053664;28;20037;-74
2021/12/17 07:59:09;;;;;;;147.95;36.17;;;7.80;99.90;;;;;;5055457;28;20115;-74
2021/12/17 08:01:36;;;;;;;101.65;32.20;;;7.80;99.90;;;;;;5071666;28;20025;-74
2021/12/17 08:04:03;;;;;;;203.00;72.40;;;7.70;99.90;;;;;;5071043;28;20024;-75
2021/12/17 08:06:53;;;;;;;161.50;69.30;;;7.80;99.90;;;;;;5058030;28;20500;-75
2021/12/17 08:09:24;;;;;;;132.35;44.47;;;7.90;99.90;;;;;;5058237;28;20477;-75
2021/12/17 08:11:56;;;;;;;113.43;39.83;;;7.90;99.90;;;;;;5051525;28;20389;-74
2021/12/17 08:14:27;;;;;;;;;;;7.90;99.90;;;;;;5051417;28;20657;-74
2021/12/17 08:17:07;;;;;;;116.50;34.78;;;7.80;99.90;;;;;;5058219;28;19912;-75
2021/12/17 08:25:17;;;;;;;89.65;26.83;;;8.10;99.90;;;;;;5059149;28;20045;-74
2021/12/17 08:28:01;;;;;;;87.03;28.77;;;7.80;99.90;;;;;;5071123;28;20037;-74
2021/12/17 08:30:29;;;;;;;79.45;25.65;;;7.70;99.90;;;;;;5070572;28;20036;-74
2021/12/17 08:33:05;;;;;;;91.18;27.35;;;7.70;99.90;;;;;;5070929;28;20473;-74
2021/12/17 08:35:35;;;;;;;75.50;25.30;;;7.50;99.90;;;;;;5070902;28;20036;-75
2021/12/17 08:38:08;;;;;;;72.15;25.33;;;7.60;99.90;;;;;;5070527;28;20047;-75
2021/12/17 08:40:35;;;;;;;80.88;25.65;;;7.60;99.90;;;;;;5070460;28;20370;-74
2021/12/17 08:43:01;;;;;;;83.97;25.63;;;7.90;99.90;;;;;;5070756;28;20024;-75
2021/12/17 08:45:29;;;;;;;77.25;25.52;;;8.00;99.90;;;;;;5070936;28;20036;-75
2021/12/17 08:48:14;;;;;;;88.75;26.65;;;8.10;99.90;;;;;;5073378;28;20101;-74
2021/12/17 08:50:45;;;;;;;95.23;27.23;;;8.20;99.90;;;;;;5074576;28;20025;-74
2021/12/17 08:53:12;;;;;;;90.15;29.33;;;8.20;99.90;;;;;;5074750;28;20297;-74
2021/12/17 08:55:38;;;;;;;89.05;28.88;;;8.50;99.90;;;;;;5074800;28;20392;-75
2021/12/17 08:58:04;;;;;;;84.60;28.23;;;8.50;99.90;;;;;;5074833;28;20028;-75
2021/12/17 09:00:31;;;;;;;98.57;31.55;;;8.50;99.90;;;;;;5073825;28;20401;-75
2021/12/17 09:03:00;;;;;;;103.88;30.63;;;8.50;99.90;;;;;;5074440;28;20024;-74
2021/12/17 09:05:52;;;;;;;92.20;29.45;;;8.70;99.90;;;;;;5074959;28;20049;-75
2021/12/17 09:08:24;;;;;;;84.50;28.75;;;8.50;99.90;;;;;;5070069;28;20492;-74
2021/12/17 09:10:57;;;;;;;110.53;31.95;;;8.40;99.90;;;;;;5054204;28;20029;-75
2021/12/17 09:13:37;;;;;;;99.30;32.00;;;8.50;99.90;;;;;;5054475;28;20032;-75
2021/12/17 09:16:06;;;;;;;82.60;30.60;;;8.40;99.90;;;;;;5054102;28;20102;-75
2021/12/17 09:18:36;;;;;;;93.13;30.23;;;8.30;99.90;;;;;;5053910;28;20107;-75
2021/12/17 09:21:25;;;;;;;94.68;30.70;;;8.40;99.90;;;;;;5055011;28;20049;-75
2021/12/17 09:24:03;;;;;;;101.65;31.60;;;8.30;99.90;;;;;;5060452;28;20021;-75
2021/12/17 09:26:49;;;;;;;94.45;32.05;;;8.50;99.90;;;;;;5074927;28;20088;-75
2021/12/17 09:29:18;;;;;;;91.32;31.85;;;8.40;99.90;;;;;;5070796;28;20016;-76
2021/12/17 09:31:44;;;;;;;95.20;31.33;;;8.50;99.90;;;;;;5054523;28;20036;-75
2021/12/17 09:34:10;;;;;;;90.90;32.50;;;8.80;99.90;;;;;;5055648;28;20060;-74
2021/12/17 09:36:36;;;;;;;82.50;32.13;;;8.80;99.90;;;;;;5058867;28;20047;-77
2021/12/17 09:39:03;;;;;;;81.70;31.10;;;8.70;99.90;;;;;;5058317;28;20103;-73
2021/12/17 09:41:28;;;;;;;109.22;50.65;;;8.70;99.90;;;;;;5073469;28;20032;-73
2021/12/17 09:43:54;;;;;;;102.57;43.53;;;8.70;99.90;;;;;;5074814;28;20104;-74
2021/12/17 09:46:21;;;;;;;89.28;32.10;;;8.80;99.90;;;;;;5073794;28;20051;-77
2021/12/17 09:48:48;;;;;;;85.90;32.35;;;8.80;99.90;;;;;;5075323;28;20521;-77
2021/12/17 09:51:15;;;;;;;81.10;32.63;;;8.80;99.90;;;;;;5073457;28;20093;-76
2021/12/17 09:53:42;;;;;;;81.72;32.15;;;8.90;99.90;;;;;;5074946;28;20040;-77
2021/12/17 09:56:08;;;;;;;85.55;32.72;;;8.80;99.90;;;;;;5074863;28;20036;-79
2021/12/17 09:58:34;;;;;;;87.18;28.48;;;8.90;99.90;;;;;;5074860;28;20024;-77
2021/12/17 10:01:00;;;;;;;77.85;28.63;;;8.80;99.90;;;;;;5073631;28;20036;-77
2021/12/17 10:03:26;;;;;;;87.43;29.15;;;8.70;99.90;;;;;;5073510;28;20078;-77
2021/12/17 10:05:53;;;;;;;78.70;28.90;;;8.90;99.90;;;;;;5073595;28;20507;-77
2021/12/17 10:08:21;;;;;;;74.07;26.58;;;9.00;99.90;;;;;;5074072;28;20481;-78
2021/12/17 10:10:48;;;;;;;74.15;27.27;;;9.10;99.90;;;;;;5072250;28;20028;-74
2021/12/17 10:13:22;;;;;;;64.70;24.25;;;9.20;99.90;;;;;;5073579;28;20024;-76
2021/12/17 10:15:51;;;;;;;54.50;22.77;;;9.30;99.90;;;;;;5074815;28;20060;-73
2021/12/17 10:18:17;;;;;;;72.05;24.60;;;8.90;99.90;;;;;;5074881;28;20036;-75
2021/12/17 10:21:01;;;;;;;62.08;22.50;;;9.00;99.90;;;;;;5074676;28;20047;-73
2021/12/17 10:23:29;;;;;;;53.95;20.25;;;9.10;99.90;;;;;;5074693;28;20020;-74
2021/12/17 10:25:55;;;;;;;51.25;21.63;;;9.00;99.90;;;;;;5072970;28;20090;-74
2021/12/17 10:28:21;;;;;;;54.33;22.23;;;9.10;99.90;;;;;;5073557;28;20017;-76
2021/12/17 10:30:49;;;;;;;46.35;22.33;;;9.10;99.90;;;;;;5074371;28;20028;-75
2021/12/17 10:33:23;;;;;;;48.42;21.95;;;9.10;99.90;;;;;;5073352;28;20048;-74
2021/12/17 10:35:52;;;;;;;51.97;21.58;;;9.00;99.90;;;;;;5074750;28;20108;-75
2021/12/17 10:38:24;;;;;;;38.45;18.92;;;9.10;99.90;;;;;;5062892;28;20523;-82
2021/12/17 10:41:12;;;;;;;36.13;18.80;;;9.30;99.90;;;;;;5054318;28;20082;-79
2021/12/17 10:43:43;;;;;;;37.25;20.20;;;9.30;99.90;;;;;;5053529;28;20028;-79
2021/12/17 10:51:20;;;;;;;37.03;20.90;;;9.40;99.90;;;;;;5074483;28;20464;-79
2021/12/17 10:53:53;;;;;;;44.38;21.58;;;9.70;99.90;;;;;;5073843;28;20473;-78
2021/12/17 10:56:21;;;;;;;36.33;19.95;;;9.70;99.90;;;;;;5073674;28;20397;-79
2021/12/17 10:59:02;;;;;;;35.40;19.30;;;9.60;99.90;;;;;;5055486;28;20387;-78
2021/12/17 11:01:49;;;;;;;39.67;20.30;;;9.70;99.90;;;;;;5055974;28;20029;-79
2021/12/17 11:04:23;;;;;;;42.50;21.48;;;9.50;99.90;;;;;;5073946;28;20427;-78
2021/12/17 11:06:55;;;;;;;45.88;21.20;;;9.50;99.90;;;;;;5069912;28;20040;-78
2021/12/17 11:09:42;;;;;;;48.35;22.98;;;9.70;99.90;;;;;;5069727;28;20025;-78
2021/12/17 11:12:13;;;;;;;50.40;21.05;;;9.50;99.90;;;;;;5072428;28;20460;-78
2021/12/17 11:14:44;;;;;;;46.42;21.20;;;9.40;99.90;;;;;;5073177;28;20037;-79
2021/12/17 11:17:11;;;;;;;47.90;20.83;;;9.40;99.90;;;;;;5053647;28;20040;-79
2021/12/17 11:19:38;;;;;;;47.70;20.85;;;9.50;99.90;;;;;;5053488;28;20055;-78
2021/12/17 11:22:04;;;;;;;48.35;21.73;;;9.60;99.90;;;;;;5051485;28;20029;-79
2021/12/17 11:24:32;;;;;;;50.35;21.02;;;9.60;99.90;;;;;;5053043;28;20443;-79
2021/12/17 11:26:59;;;;;;;52.47;21.08;;;9.60;99.90;;;;;;5070176;28;20392;-79
2021/12/17 11:29:26;;;;;;;40.90;18.67;;;9.50;99.90;;;;;;5073276;28;20028;-79
2021/12/17 11:31:52;;;;;;;42.22;17.67;;;9.70;99.90;;;;;;5072353;28;20469;-79
2021/12/17 11:34:18;;;;;;;50.65;19.52;;;9.70;99.90;;;;;;5073341;28;20021;-79
2021/12/17 11:36:45;;;;;;;49.20;20.90;;;9.60;99.90;;;;;;5070727;28;20074;-79
2021/12/17 11:39:23;;;;;;;50.80;21.85;;;9.50;99.90;;;;;;5072064;28;20036;-80
2021/12/17 11:42:30;;;;;;;57.05;23.02;;;9.60;99.90;;;;;;5072959;28;20028;-76
2021/12/17 11:47:44;;;;;;;54.33;23.33;;;9.40;99.90;;;;;;5073114;28;20071;-80
2021/12/17 11:50:13;;;;;;;60.92;26.80;;;9.50;99.90;;;;;;5071712;28;20056;-75
2021/12/17 11:52:47;;;;;;;83.78;32.42;;;9.50;99.90;;;;;;5070934;28;20036;-77
2021/12/17 11:55:36;;;;;;;77.50;33.03;;;9.40;99.90;;;;;;5058270;28;20032;-77
2021/12/17 11:58:11;;;;;;;61.40;28.20;;;9.40;99.90;;;;;;5056913;28;20035;-77
2021/12/17 12:00:45;;;;;;;53.50;23.88;;;9.30;99.90;;;;;;5062534;28;20031;-77
2021/12/17 12:03:15;;;;;;;48.20;24.00;;;9.30;99.90;;;;;;5051689;28;20470;-77
2021/12/17 12:05:44;;;;;;;44.58;22.38;;;9.20;99.90;;;;;;5054495;28;20071;-76
2021/12/17 12:11:25;;;;;;;47.00;22.27;;;9.10;99.90;;;;;;5056382;28;20032;-78
2021/12/17 12:13:53;;;;;;;52.92;23.92;;;9.20;99.90;;;;;;5052186;28;20051;-78
2021/12/17 12:16:24;;;;;;;44.25;22.38;;;9.10;99.90;;;;;;5056923;28;20036;-80
2021/12/17 12:18:57;;;;;;;50.80;23.40;;;9.10;99.90;;;;;;5055422;28;20457;-78
2021/12/17 12:21:33;;;;;;;44.95;20.60;;;9.20;99.90;;;;;;5038792;28;20390;-78
2021/12/17 12:24:09;;;;;;;38.63;19.45;;;9.20;99.90;;;;;;5057784;28;20032;-79
2021/12/17 12:26:58;;;;;;;46.28;19.38;;;9.30;99.90;;;;;;5063416;28;20035;-80
2021/12/17 12:29:24;;;;;;;39.28;19.00;;;9.40;99.90;;;;;;5060570;28;20024;-79
2021/12/17 12:31:57;;;;;;;35.15;17.83;;;9.50;99.90;;;;;;5045424;28;20393;-78
2021/12/17 12:34:33;;;;;;;44.78;21.02;;;9.60;99.90;;;;;;5058461;28;20488;-81
2021/12/17 12:37:08;;;;;;;41.10;21.52;;;9.70;99.90;;;;;;5051524;28;20624;-80
2021/12/17 12:39:36;;;;;;;47.05;21.65;;;9.40;99.90;;;;;;5055947;28;20421;-80
2021/12/17 12:42:05;;;;;;;43.95;20.00;;;9.40;99.90;;;;;;5053626;28;20036;-78
2021/12/17 12:44:39;;;;;;;40.65;19.95;;;9.40;99.90;;;;;;5065153;28;20021;-79
2021/12/17 12:47:27;;;;;;;40.22;18.92;;;9.50;99.90;;;;;;5065280;28;20043;-79
2021/12/17 12:49:59;;;;;;;41.78;19.23;;;9.50;99.90;;;;;;5052845;28;20052;-79
2021/12/17 12:52:30;;;;;;;34.63;18.13;;;9.70;99.90;;;;;;5052949;28;20530;-71
2021/12/17 12:55:04;;;;;;;35.25;17.48;;;9.60;99.90;;;;;;5050691;28;20061;-77
2021/12/17 12:57:32;;;;;;;32.63;17.17;;;9.60;99.90;;;;;;5052034;28;20481;-77
2021/12/17 13:00:01;;;;;;;37.65;18.08;;;9.60;99.90;;;;;;5052123;28;20085;-81
2021/12/17 13:02:27;;;;;;;34.58;17.20;;;9.70;99.90;;;;;;5056286;28;20405;-81
2021/12/17 13:04:55;;;;;;;35.83;18.08;;;9.70;99.90;;;;;;5052754;28;20095;-77
2021/12/17 13:07:34;;;;;;;33.50;16.33;;;9.60;99.90;;;;;;5065003;28;20035;-86
2021/12/17 13:10:20;;;;;;;33.40;15.60;;;9.60;99.90;;;;;;5056275;28;20086;-77
2021/12/17 13:13:00;;;;;;;36.72;17.25;;;9.60;99.90;;;;;;5071667;28;20029;-82
2021/12/17 13:26:35;;;;;;;34.70;17.95;;;9.80;99.90;;;;;;5070882;28;20044;-83
2021/12/17 13:29:30;;;;;;;34.55;17.17;;;10.00;99.90;;;;;;5067344;28;20016;-77
2021/12/17 13:32:09;;;;;;;36.97;17.75;;;10.10;99.90;;;;;;5055061;28;20043;-79
2021/12/17 13:34:43;;;;;;;41.45;18.65;;;10.20;99.90;;;;;;5051746;28;20069;-79
2021/12/17 13:37:26;;;;;;;42.17;18.20;;;10.10;99.90;;;;;;5062484;28;20389;-78
2021/12/17 13:40:07;;;;;;;38.17;15.60;;;10.40;99.90;;;;;;5069269;28;20043;-76
2021/12/17 13:42:37;;;;;;;26.38;11.30;;;10.50;99.90;;;;;;5067573;28;20110;-80
2021/12/17 13:45:08;;;;;;;27.15;14.57;;;10.50;99.90;;;;;;5061750;28;20127;-80
2021/12/17 13:47:35;;;;;;;34.50;14.98;;;10.60;99.90;;;;;;5054281;28;20041;-81
2021/12/17 13:50:12;;;;;;;29.85;14.10;;;10.60;99.90;;;;;;5055440;28;20465;-81
2021/12/17 13:52:55;;;;;;;37.58;16.02;;;10.60;99.90;;;;;;5055203;28;20398;-80
2021/12/17 13:55:25;;;;;;;35.65;17.02;;;10.60;99.90;;;;;;5055865;28;20044;-80
2021/12/17 13:57:52;;;;;;;42.72;17.27;;;10.60;99.90;;;;;;5063870;28;20036;-81
2021/12/17 14:00:21;;;;;;;32.45;15.82;;;10.70;99.90;;;;;;5074912;28;20099;-77
2021/12/17 14:02:49;;;;;;;36.30;15.38;;;10.80;99.90;;;;;;5074249;28;20029;-79
2021/12/17 14:05:28;;;;;;;34.72;15.40;;;10.90;99.90;;;;;;5074950;28;20039;-77
2021/12/17 14:07:59;;;;;;;29.70;14.35;;;11.00;99.90;;;;;;5072735;28;20055;-78
2021/12/17 14:10:32;;;;;;;38.72;16.52;;;11.00;99.90;;;;;;5053468;28;20041;-78
2021/12/17 14:12:59;;;;;;;32.05;15.85;;;10.90;99.90;;;;;;5054834;28;20039;-76
2021/12/17 14:15:32;;;;;;;31.58;15.52;;;10.70;99.90;;;;;;5066364;28;20540;-77
2021/12/17 14:18:06;;;;;;;25.25;13.88;;;10.80;99.90;;;;;;5074999;28;20334;-77
2021/12/17 14:20:42;;;;;;;29.85;15.98;;;10.30;99.90;;;;;;5073302;28;20049;-72
2021/12/17 14:23:21;;;;;;;29.17;17.17;;;10.40;99.90;;;;;;5074579;28;20107;-73
2021/12/17 14:25:58;;;;;;;35.90;19.73;;;10.40;99.90;;;;;;5074606;28;20043;-73
2021/12/17 14:28:25;;;;;;;39.05;20.42;;;10.30;99.90;;;;;;5073442;28;20079;-77
2021/12/17 14:31:03;;;;;;;49.03;22.25;;;10.10;99.90;;;;;;5074871;28;20032;-77
2021/12/17 14:33:34;;;;;;;43.60;21.42;;;10.20;99.90;;;;;;5074727;28;20028;-75
2021/12/17 14:36:09;;;;;;;40.20;20.23;;;10.30;99.90;;;;;;5070978;28;20036;-80
2021/12/17 14:38:41;;;;;;;41.63;20.73;;;10.00;99.90;;;;;;5074524;28;20040;-77
2021/12/17 14:41:40;;;;;;;42.20;20.67;;;10.20;99.90;;;;;;5073360;28;20077;-77
2021/12/17 14:44:58;;;;;;;35.42;18.83;;;10.10;99.90;;;;;;5073845;28;20492;-78
2021/12/17 14:47:09;;;;;;;;;;;9.90;99.90;;;;;;5072456;28;20040;-77
2021/12/17 15:05:41;;;;;;;42.45;18.90;;;10.10;99.90;;;;;;5051904;28;20485;-77
2021/12/17 15:08:06;;;;;;;41.75;19.35;;;10.00;99.90;;;;;;5053837;28;20021;-78
2021/12/17 15:10:32;;;;;;;43.88;18.75;;;10.10;99.90;;;;;;5071494;28;20040;-75
2021/12/17 15:13:00;;;;;;;35.30;15.95;;;10.10;99.90;;;;;;5073202;28;20029;-76
2021/12/17 15:15:30;;;;;;;31.70;15.65;;;10.00;99.90;;;;;;5073591;28;20028;-77
2021/12/17 15:17:57;;;;;;;33.35;15.95;;;10.10;99.90;;;;;;5073694;28;20496;-77
2021/12/17 15:20:29;;;;;;;37.17;17.60;;;9.90;99.90;;;;;;5073253;28;20354;-77
2021/12/17 15:22:56;;;;;;;34.35;17.73;;;9.70;99.90;;;;;;5073541;28;20041;-77
2021/12/17 15:25:23;;;;;;;40.75;18.35;;;9.80;99.90;;;;;;5072113;28;20032;-78
2021/12/17 15:27:50;;;;;;;31.05;16.52;;;9.80;99.90;;;;;;5072085;28;20047;-77
2021/12/17 15:30:24;;;;;;;31.30;16.27;;;9.60;99.90;;;;;;5073578;28;20550;-77
2021/12/17 15:32:50;;;;;;;33.50;15.50;;;9.50;99.90;;;;;;5073272;28;20033;-77
2021/12/17 15:35:19;;;;;;;36.80;17.20;;;9.60;99.90;;;;;;5071668;28;20028;-77
2021/12/17 15:37:46;;;;;;;41.40;19.38;;;9.30;99.90;;;;;;5073463;28;20032;-77
2021/12/17 15:40:13;;;;;;;40.20;19.00;;;9.30;99.90;;;;;;5073315;28;20023;-78
2021/12/17 15:42:40;;;;;;;32.28;17.90;;;9.30;99.90;;;;;;5073146;28;20075;-77
2021/12/17 15:45:07;;;;;;;35.40;17.92;;;9.50;99.90;;;;;;5071753;28;20033;-78
2021/12/17 15:47:34;;;;;;;37.25;16.60;;;9.60;99.90;;;;;;5073340;28;20020;-77
2021/12/17 15:50:00;;;;;;;36.85;17.13;;;9.50;99.90;;;;;;5073179;28;20059;-78
2021/12/17 15:52:27;;;;;;;35.85;17.58;;;9.60;99.90;;;;;;5071870;28;20067;-78
2021/12/17 15:54:53;;;;;;;34.88;17.98;;;9.60;99.90;;;;;;5072912;28;20473;-77
2021/12/17 15:57:19;;;;;;;32.53;16.67;;;9.80;99.90;;;;;;5072047;28;20052;-77
2021/12/17 15:59:48;;;;;;;30.60;16.08;;;9.90;99.90;;;;;;5072801;28;20028;-77
2021/12/17 16:02:16;;;;;;;39.97;18.15;;;9.60;99.90;;;;;;5072785;28;20036;-77
2021/12/17 16:04:44;;;;;;;39.58;17.90;;;9.50;99.90;;;;;;5072839;28;20111;-78
2021/12/17 16:07:12;;;;;;;34.78;17.13;;;9.50;99.90;;;;;;5072696;28;20036;-77
2021/12/17 16:21:08;;;;;;;32.20;17.25;;;9.10;99.90;;;;;;5051665;28;20041;-77